Terminal Aerodrome Forecast
Issued by NWS

Home | Current Version | Previous Version | Text Only | Print | Product List | Glossary On
Versions: 1 2 3 4 5 6 7 8 9 10 11 12 13 14 15
000
FTUS45 KGGW 270534
TAFSDY
TAF
KSDY 270534Z 2706/2806 01006KT P6SM -SHSN OVC035
     FM271000 03008KT 4SM -SN OVC025
     FM271300 03009KT 1SM -SN OVC008
     FM280000 04009KT P6SM BKN020=

USA.gov is the U.S. government's official web portal to all federal, state and local government web resources and services.